Atchison, Kansas
Current Conditions -  °F | °C
As of 8:21 PM on Monday 22 Dec 2014 (Local Time) from KSTJ Reporting Station
Overcast Overcast  
Wind Chill:   Ceiling: 3400
Heat Index:   Visibility: 10mi
Dew Point:   Wind: 8mph
Humidity: 89%   Direction: 260°W
Pressure: 29.5"   Gusts: NA
Location:  39.56°N, 95.13°W
Report Text: KSTJ 230221Z AUTO 26007KT 10SM SCT023 BKN034 OVC041 06/04 A2950 RMK AO2 T00610044
Loading
Personal Weather Stations






























Interactive Weather Map New forecast layout! Learn more

10-Day Weather Forecast

Advertisements
Track Severe Weather on mobile